Time;durP1;ratioP1;P1;durP2;ratioP2;P2;SDS_P1;SDS_P2;PMS_P1;PMS_P2;Temp;Humidity;BMP_temperature;BMP_pressure;BME280_temperature;BME280_humidity;BME280_pressure;Samples;Min_cycle;Max_cycle;Signal;HPM_P1;HPM_P2
2022/11/21 00:01:17;;;;;;;22.73;12.20;;;3.40;99.90;;;;;;5083740;28;20196;-72
2022/11/21 00:03:45;;;;;;;19.43;10.33;;;3.50;99.90;;;;;;5078817;28;20187;-72
2022/11/21 00:06:12;;;;;;;19.20;10.43;;;3.40;99.90;;;;;;5080893;28;20204;-72
2022/11/21 00:08:39;;;;;;;13.37;8.03;;;3.50;99.90;;;;;;5076907;28;20280;-70
2022/11/21 00:11:07;;;;;;;17.73;9.53;;;3.50;99.90;;;;;;5076941;28;20275;-71
2022/11/21 00:13:34;;;;;;;22.10;10.57;;;3.50;99.90;;;;;;5091036;28;20283;-71
2022/11/21 00:16:04;;;;;;;20.07;10.33;;;3.60;99.90;;;;;;5090079;28;20188;-71
2022/11/21 00:18:31;;;;;;;16.97;9.87;;;3.50;99.90;;;;;;5078881;28;20192;-72
2022/11/21 00:21:03;;;;;;;15.97;8.80;;;3.50;99.90;;;;;;5083590;28;20712;-71
2022/11/21 00:23:30;;;;;;;16.17;8.37;;;3.50;99.90;;;;;;5056742;28;20664;-71
2022/11/21 00:25:56;;;;;;;12.53;7.60;;;3.50;99.90;;;;;;5084673;28;20200;-72
2022/11/21 00:28:25;;;;;;;13.43;8.00;;;3.50;99.90;;;;;;5067762;28;20204;-72
2022/11/21 00:30:52;;;;;;;12.73;8.03;;;3.50;99.90;;;;;;5088048;28;20689;-71
2022/11/21 00:33:19;;;;;;;10.67;6.73;;;3.60;99.90;;;;;;5080309;28;20723;-71
2022/11/21 00:35:45;;;;;;;11.50;6.43;;;3.50;99.90;;;;;;5083230;28;20185;-71
2022/11/21 00:38:12;;;;;;;11.63;7.17;;;3.60;99.90;;;;;;5086551;28;20623;-71
2022/11/21 00:40:39;;;;;;;10.57;6.50;;;3.70;99.90;;;;;;5082761;28;20691;-71
2022/11/21 00:43:06;;;;;;;15.33;8.87;;;3.70;99.90;;;;;;5082869;28;20196;-71
2022/11/21 00:45:35;;;;;;;13.13;7.27;;;3.70;99.90;;;;;;5060903;28;20385;-71
2022/11/21 00:48:02;;;;;;;12.43;6.40;;;3.70;99.90;;;;;;5078422;28;20284;-71
2022/11/21 00:50:29;;;;;;;11.70;6.43;;;3.80;99.90;;;;;;5085144;28;20192;-71
2022/11/21 00:52:59;;;;;;;9.53;5.80;;;3.80;99.90;;;;;;5080067;28;20251;-71
2022/11/21 00:55:26;;;;;;;12.63;7.27;;;3.80;99.90;;;;;;5083366;28;20220;-71
2022/11/21 00:57:53;;;;;;;14.37;6.80;;;3.90;99.90;;;;;;5081569;28;20192;-70
2022/11/21 01:00:20;;;;;;;13.73;7.43;;;3.80;99.90;;;;;;5081052;28;20215;-72
2022/11/21 01:02:48;;;;;;;16.47;9.00;;;3.90;99.90;;;;;;5060208;28;20288;-72
2022/11/21 01:05:15;;;;;;;18.13;8.50;;;4.00;99.90;;;;;;5080217;28;20205;-72
2022/11/21 01:07:42;;;;;;;13.83;8.23;;;3.90;99.90;;;;;;5080668;28;20231;-72
2022/11/21 01:10:09;;;;;;;12.60;7.57;;;3.90;99.90;;;;;;5074426;28;20385;-71
2022/11/21 01:12:36;;;;;;;17.27;9.30;;;3.90;99.90;;;;;;5070880;28;20295;-71
2022/11/21 01:15:04;;;;;;;20.13;10.83;;;3.90;99.90;;;;;;5084506;28;20193;-71
2022/11/21 01:17:32;;;;;;;19.30;9.90;;;3.90;99.90;;;;;;5080977;28;20203;-71
2022/11/21 01:20:01;;;;;;;22.83;11.87;;;3.90;99.90;;;;;;5065200;28;20197;-72
2022/11/21 01:22:29;;;;;;;21.13;11.03;;;3.90;99.90;;;;;;5052697;28;20225;-71
2022/11/21 01:24:56;;;;;;;23.07;11.27;;;3.80;99.90;;;;;;5062935;28;20215;-71
2022/11/21 01:27:23;;;;;;;22.97;11.23;;;3.80;99.90;;;;;;5064888;28;20200;-72
2022/11/21 01:29:51;;;;;;;18.30;10.17;;;3.90;99.90;;;;;;5064428;28;20196;-72
2022/11/21 01:32:18;;;;;;;21.83;11.37;;;3.80;99.90;;;;;;5060417;28;20204;-71
2022/11/21 01:34:45;;;;;;;25.67;11.20;;;3.80;99.90;;;;;;5062415;28;20186;-72
2022/11/21 01:37:13;;;;;;;22.03;11.37;;;3.80;99.90;;;;;;5063365;28;20221;-71
2022/11/21 01:39:40;;;;;;;23.33;10.83;;;3.80;99.90;;;;;;5063165;28;20193;-72
2022/11/21 01:42:07;;;;;;;22.67;11.07;;;3.80;99.90;;;;;;5066005;28;20188;-72
2022/11/21 01:44:49;;;;;;;17.53;8.77;;;3.80;99.90;;;;;;5062336;28;20199;-72
2022/11/21 01:47:16;;;;;;;15.50;8.47;;;3.90;99.90;;;;;;5059271;28;20190;-72
2022/11/21 01:49:44;;;;;;;13.17;7.20;;;3.90;99.90;;;;;;5062405;28;20203;-72
2022/11/21 01:52:16;;;;;;;17.37;8.70;;;3.90;99.90;;;;;;5059991;28;20269;-72
2022/11/21 01:54:47;;;;;;;17.27;8.90;;;3.90;99.90;;;;;;5062452;28;20272;-72
2022/11/21 01:57:19;;;;;;;17.70;9.47;;;3.90;99.90;;;;;;5058525;28;20205;-71
2022/11/21 01:59:50;;;;;;;25.70;12.27;;;3.90;99.90;;;;;;5064474;28;20215;-72
2022/11/21 02:02:21;;;;;;;22.93;11.33;;;3.90;99.90;;;;;;5550363;22;20255;-72
2022/11/21 02:04:50;;;;;;;18.30;9.63;;;3.90;99.90;;;;;;5059709;28;20220;-73
2022/11/21 02:07:22;;;;;;;15.93;8.87;;;3.90;99.90;;;;;;5083197;28;20239;-73
2022/11/21 02:09:53;;;;;;;18.77;9.40;;;3.90;99.90;;;;;;5059055;28;20629;-73
2022/11/21 02:12:25;;;;;;;16.20;9.50;;;3.90;99.90;;;;;;5078186;28;20203;-73
2022/11/21 02:14:53;;;;;;;19.43;9.87;;;3.90;99.90;;;;;;5071715;28;20668;-73
2022/11/21 02:17:20;;;;;;;21.33;10.70;;;3.80;99.90;;;;;;5077976;28;20296;-72
2022/11/21 02:19:52;;;;;;;20.33;10.00;;;3.90;99.90;;;;;;5065343;28;20197;-72
2022/11/21 02:22:28;;;;;;;18.83;9.50;;;3.80;99.90;;;;;;5085849;28;20276;-71
2022/11/21 02:25:02;;;;;;;15.80;8.80;;;3.80;99.90;;;;;;5082778;28;20294;-72
2022/11/21 02:27:30;;;;;;;18.03;9.50;;;3.80;99.90;;;;;;5076177;28;20275;-73
2022/11/21 02:29:57;;;;;;;22.97;10.73;;;3.80;99.90;;;;;;5083041;28;20274;-73
2022/11/21 02:32:31;;;;;;;21.87;11.80;;;3.80;99.90;;;;;;5080598;28;20282;-73
2022/11/21 02:34:58;;;;;;;17.77;9.97;;;3.80;99.90;;;;;;5081810;28;20266;-73
2022/11/21 02:37:25;;;;;;;16.47;8.87;;;3.80;99.90;;;;;;5069369;28;20628;-73
2022/11/21 02:39:53;;;;;;;23.07;11.77;;;3.80;99.90;;;;;;5080705;28;20251;-73
2022/11/21 02:42:28;;;;;;;20.87;10.83;;;3.90;99.90;;;;;;5064316;28;20292;-73
2022/11/21 02:45:02;;;;;;;18.83;9.83;;;3.80;99.90;;;;;;5073085;28;20201;-73
2022/11/21 02:47:30;;;;;;;19.27;10.53;;;3.80;99.90;;;;;;5076919;28;20196;-73
2022/11/21 02:50:01;;;;;;;20.07;10.47;;;3.80;99.90;;;;;;5056691;28;20624;-73
2022/11/21 02:52:28;;;;;;;17.13;9.50;;;3.80;99.90;;;;;;5078505;28;20392;-73
2022/11/21 02:54:55;;;;;;;16.37;8.47;;;3.90;99.90;;;;;;5062046;28;20682;-74
2022/11/21 02:57:24;;;;;;;16.30;8.60;;;3.90;99.90;;;;;;5085374;28;20639;-74
2022/11/21 02:59:51;;;;;;;18.47;9.23;;;3.90;99.90;;;;;;5082070;28;20702;-74
2022/11/21 03:02:18;;;;;;;15.90;8.67;;;3.90;99.90;;;;;;5066445;28;20840;-73
2022/11/21 03:04:45;;;;;;;17.50;9.13;;;3.90;99.90;;;;;;5061265;28;20723;-74
2022/11/21 03:07:12;;;;;;;22.97;11.30;;;3.90;99.90;;;;;;5081850;28;20188;-73
2022/11/21 03:09:39;;;;;;;26.27;13.03;;;4.00;99.90;;;;;;5086407;28;20224;-73
2022/11/21 03:12:07;;;;;;;22.53;11.13;;;4.00;99.90;;;;;;5086316;28;20496;-73
2022/11/21 03:14:35;;;;;;;19.03;9.97;;;3.90;99.90;;;;;;5083543;28;20264;-73
2022/11/21 03:17:03;;;;;;;19.77;10.03;;;3.90;99.90;;;;;;5082971;28;20199;-73
2022/11/21 03:19:30;;;;;;;20.57;10.43;;;3.90;99.90;;;;;;5056409;28;20316;-73
2022/11/21 03:21:57;;;;;;;19.30;9.40;;;3.90;99.90;;;;;;5074366;28;20193;-73
2022/11/21 03:24:24;;;;;;;30.07;13.63;;;4.00;99.90;;;;;;5088985;28;20231;-73
2022/11/21 03:26:51;;;;;;;32.50;15.53;;;4.00;99.90;;;;;;5091934;28;20200;-73
2022/11/21 03:29:18;;;;;;;36.73;16.50;;;3.90;99.90;;;;;;5084945;28;20200;-73
2022/11/21 03:31:46;;;;;;;35.33;16.47;;;3.90;99.90;;;;;;5089110;28;20292;-73
2022/11/21 03:34:13;;;;;;;34.27;16.70;;;3.80;99.90;;;;;;5078234;28;20190;-72
2022/11/21 03:36:40;;;;;;;34.77;15.90;;;3.70;99.90;;;;;;5091694;28;20265;-73
2022/11/21 03:39:08;;;;;;;37.97;16.80;;;3.70;99.90;;;;;;5063407;28;20288;-73
2022/11/21 03:41:35;;;;;;;38.80;16.97;;;3.60;99.90;;;;;;5086255;28;20406;-73
2022/11/21 03:44:03;;;;;;;33.77;16.27;;;3.50;99.90;;;;;;5078670;28;20220;-73
2022/11/21 03:46:32;;;;;;;30.37;15.10;;;3.50;99.90;;;;;;5089048;28;20255;-73
2022/11/21 03:49:01;;;;;;;33.70;16.10;;;3.40;99.90;;;;;;5080400;28;20189;-73
2022/11/21 03:51:28;;;;;;;34.57;15.97;;;3.40;99.90;;;;;;5079538;28;20188;-73
2022/11/21 03:53:55;;;;;;;29.23;14.03;;;3.40;99.90;;;;;;5081916;28;20201;-73
2022/11/21 03:56:22;;;;;;;28.43;13.23;;;3.40;99.90;;;;;;5088804;28;20233;-73
2022/11/21 03:58:49;;;;;;;29.20;13.77;;;3.40;99.90;;;;;;5063062;28;20251;-73
2022/11/21 04:01:17;;;;;;;28.90;12.87;;;3.30;99.90;;;;;;5076635;28;20647;-73
2022/11/21 04:03:45;;;;;;;35.17;14.73;;;3.40;99.90;;;;;;5076183;28;20225;-73
2022/11/21 04:06:16;;;;;;;28.37;13.37;;;3.40;99.90;;;;;;5079914;28;20554;-73
2022/11/21 04:08:43;;;;;;;31.80;13.97;;;3.40;99.90;;;;;;5079561;28;20615;-74
2022/11/21 04:11:11;;;;;;;32.87;14.93;;;3.40;99.90;;;;;;5085392;28;20283;-73
2022/11/21 04:13:38;;;;;;;33.03;15.67;;;3.40;99.90;;;;;;5088802;28;20280;-73
2022/11/21 04:16:05;;;;;;;34.47;14.37;;;3.40;99.90;;;;;;5059375;28;20282;-73
2022/11/21 04:18:34;;;;;;;34.33;14.67;;;3.40;99.90;;;;;;5057743;28;20404;-73
2022/11/21 04:21:03;;;;;;;35.20;15.03;;;3.50;99.90;;;;;;5082578;28;20196;-74
2022/11/21 04:23:31;;;;;;;41.90;16.00;;;3.50;99.90;;;;;;5070512;28;20204;-74
2022/11/21 04:25:58;;;;;;;36.53;15.53;;;3.50;99.90;;;;;;5083317;28;20219;-74
2022/11/21 04:28:26;;;;;;;39.83;15.77;;;3.50;99.90;;;;;;5069809;28;20212;-74
2022/11/21 04:30:53;;;;;;;36.77;15.00;;;3.40;99.90;;;;;;5078570;28;20217;-74
2022/11/21 04:33:20;;;;;;;29.73;14.03;;;3.50;99.90;;;;;;5084767;28;20275;-74
2022/11/21 04:35:47;;;;;;;27.63;12.57;;;3.50;99.90;;;;;;5061381;28;20192;-74
2022/11/21 04:38:14;;;;;;;25.63;13.00;;;3.50;99.90;;;;;;5087144;28;20216;-74
2022/11/21 04:40:43;;;;;;;25.27;12.33;;;3.50;99.90;;;;;;5068252;28;20204;-74
2022/11/21 04:43:10;;;;;;;28.00;13.43;;;3.60;99.90;;;;;;5066952;28;20282;-75
2022/11/21 04:45:37;;;;;;;28.73;14.20;;;3.60;99.90;;;;;;5081710;28;20308;-75
2022/11/21 04:48:04;;;;;;;26.23;13.67;;;3.60;99.90;;;;;;5083381;28;20192;-73
2022/11/21 04:50:31;;;;;;;30.00;14.17;;;3.60;99.90;;;;;;5082699;28;20203;-74
2022/11/21 04:52:58;;;;;;;35.67;16.57;;;3.60;99.90;;;;;;5087608;28;20220;-74
2022/11/21 04:55:29;;;;;;;31.57;15.57;;;3.60;99.90;;;;;;5063059;28;20291;-74
2022/11/21 04:57:58;;;;;;;33.37;16.03;;;3.60;99.90;;;;;;5080214;28;20700;-74
2022/11/21 05:00:25;;;;;;;33.67;15.67;;;3.10;99.90;;;;;;5082790;28;20220;-74
2022/11/21 05:02:52;;;;;;;40.30;19.73;;;3.60;99.90;;;;;;5069737;28;20247;-74
2022/11/21 05:05:19;;;;;;;96.53;42.90;;;3.50;99.90;;;;;;5062861;28;20223;-74
2022/11/21 05:07:46;;;;;;;44.67;21.57;;;3.50;99.90;;;;;;5066864;28;20237;-73
2022/11/21 05:10:14;;;;;;;33.30;16.47;;;3.50;99.90;;;;;;5085199;28;20231;-74
2022/11/21 05:15:32;;;;;;;26.73;12.57;;;3.50;99.90;;;;;;5059922;28;20200;-74
2022/11/21 05:17:59;;;;;;;26.23;12.50;;;3.50;99.90;;;;;;5058775;28;20280;-73
2022/11/21 05:20:26;;;;;;;29.70;13.40;;;3.60;99.90;;;;;;5086191;28;20196;-74
2022/11/21 05:22:53;;;;;;;23.87;12.03;;;3.60;99.90;;;;;;5063566;28;20280;-73
2022/11/21 05:25:20;;;;;;;26.27;12.10;;;3.60;99.90;;;;;;5086068;28;20196;-73
2022/11/21 05:27:47;;;;;;;29.03;13.27;;;3.60;99.90;;;;;;5083829;28;20221;-74
2022/11/21 05:30:14;;;;;;;27.57;13.23;;;3.60;99.90;;;;;;5087800;28;20321;-74
2022/11/21 05:32:43;;;;;;;29.73;14.07;;;3.60;99.90;;;;;;5075881;28;20212;-74
2022/11/21 05:35:10;;;;;;;29.77;14.03;;;3.60;99.90;;;;;;5079916;28;20234;-74
2022/11/21 05:37:37;;;;;;;27.97;13.30;;;3.60;99.90;;;;;;5087534;28;20234;-73
2022/11/21 05:40:05;;;;;;;28.33;14.63;;;3.50;99.90;;;;;;5081300;28;20257;-73
2022/11/21 05:45:16;;;;;;;31.80;15.70;;;3.50;99.90;;;;;;5065361;28;20218;-73
2022/11/21 05:47:45;;;;;;;26.67;13.30;;;3.40;99.90;;;;;;5066081;28;20214;-74
2022/11/21 05:50:12;;;;;;;31.83;14.77;;;3.40;99.90;;;;;;5085415;28;20291;-74
2022/11/21 05:52:39;;;;;;;32.10;15.40;;;3.40;99.90;;;;;;5078501;28;20212;-74
2022/11/21 05:55:06;;;;;;;33.03;15.17;;;3.40;99.90;;;;;;5064708;28;20212;-75
2022/11/21 05:57:33;;;;;;;30.93;14.97;;;3.40;99.90;;;;;;5078634;28;20213;-74
2022/11/21 06:00:00;;;;;;;28.70;13.67;;;3.40;99.90;;;;;;5085556;28;20245;-74
2022/11/21 06:05:13;;;;;;;25.20;13.23;;;3.30;99.90;;;;;;5065346;28;20864;-74
2022/11/21 06:07:40;;;;;;;23.87;12.80;;;3.30;99.90;;;;;;5058973;28;20216;-75
2022/11/21 06:10:07;;;;;;;26.03;13.53;;;3.20;99.90;;;;;;5065310;28;20716;-74
2022/11/21 06:12:34;;;;;;;25.70;12.80;;;3.20;99.90;;;;;;5066028;28;20292;-74
2022/11/21 06:15:01;;;;;;;25.77;12.33;;;3.40;99.90;;;;;;5083101;28;20211;-74
2022/11/21 06:17:28;;;;;;;29.50;13.87;;;3.20;99.90;;;;;;5062203;28;20228;-74
2022/11/21 06:19:55;;;;;;;24.57;12.50;;;3.20;99.90;;;;;;5060482;28;20683;-74
2022/11/21 06:22:23;;;;;;;25.67;12.83;;;3.20;99.90;;;;;;5080761;28;20281;-74
2022/11/21 06:24:51;;;;;;;27.30;13.27;;;3.20;99.90;;;;;;5059209;28;20655;-74
2022/11/21 06:27:17;;;;;;;25.40;12.30;;;3.10;99.90;;;;;;5075887;28;20677;-74
2022/11/21 06:29:44;;;;;;;22.73;12.07;;;3.10;99.90;;;;;;5064987;28;20295;-74
2022/11/21 06:32:11;;;;;;;23.57;12.07;;;3.10;99.90;;;;;;5076423;28;20200;-75
2022/11/21 06:34:38;;;;;;;25.37;13.30;;;3.10;99.90;;;;;;5070622;28;20303;-75
2022/11/21 06:37:05;;;;;;;23.10;11.83;;;3.20;99.90;;;;;;5068619;28;20193;-74
2022/11/21 06:39:34;;;;;;;28.43;13.37;;;3.20;99.90;;;;;;5078250;28;20231;-74
2022/11/21 06:42:01;;;;;;;24.97;13.03;;;3.20;99.90;;;;;;5079655;28;20253;-74
2022/11/21 06:44:28;;;;;;;27.87;13.10;;;3.20;99.90;;;;;;5095002;28;20279;-74
2022/11/21 06:46:55;;;;;;;20.93;11.57;;;3.20;99.90;;;;;;5068943;28;20291;-74
2022/11/21 06:49:22;;;;;;;25.43;11.60;;;3.30;99.90;;;;;;5083388;28;20255;-74
2022/11/21 06:51:49;;;;;;;20.27;11.47;;;3.30;99.90;;;;;;5064823;28;20288;-74
2022/11/21 06:54:17;;;;;;;22.63;11.47;;;3.30;99.90;;;;;;5068725;28;20188;-74
2022/11/21 06:56:45;;;;;;;26.50;12.47;;;3.30;99.90;;;;;;5080216;28;20190;-74
2022/11/21 06:59:13;;;;;;;28.20;13.50;;;3.30;99.90;;;;;;5079127;28;20201;-75
2022/11/21 07:01:40;;;;;;;27.80;14.10;;;3.30;99.90;;;;;;5066682;28;20277;-74
2022/11/21 07:04:07;;;;;;;26.80;13.20;;;3.30;99.90;;;;;;5059321;28;20225;-74
2022/11/21 07:06:34;;;;;;;27.60;13.53;;;3.20;99.90;;;;;;5076084;28;20334;-74
2022/11/21 07:09:01;;;;;;;25.13;12.93;;;3.20;99.90;;;;;;5077527;28;20737;-74
2022/11/21 07:11:28;;;;;;;27.57;13.50;;;3.20;99.90;;;;;;5085586;28;20254;-74
2022/11/21 07:13:56;;;;;;;30.87;14.27;;;3.20;99.90;;;;;;5066413;28;20734;-74
2022/11/21 07:16:24;;;;;;;31.37;14.20;;;3.10;99.90;;;;;;5062957;28;20217;-74
2022/11/21 07:18:51;;;;;;;29.57;14.57;;;3.10;99.90;;;;;;5066361;28;20196;-74
2022/11/21 07:21:18;;;;;;;29.17;14.23;;;3.10;99.90;;;;;;5081132;28;20190;-75
2022/11/21 07:23:45;;;;;;;26.60;13.37;;;3.10;99.90;;;;;;5083176;28;20192;-75
2022/11/21 07:26:12;;;;;;;30.63;15.23;;;3.10;99.90;;;;;;5083990;28;20247;-74
2022/11/21 07:28:39;;;;;;;30.97;16.17;;;3.20;99.90;;;;;;5084763;28;20188;-75
2022/11/21 07:31:12;;;;;;;31.47;15.40;;;3.10;99.90;;;;;;5076580;28;20288;-75
2022/11/21 07:33:39;;;;;;;35.37;16.13;;;3.10;99.90;;;;;;5082267;28;20582;-74
2022/11/21 07:36:06;;;;;;;34.33;15.57;;;3.10;99.90;;;;;;5085737;28;20685;-76
2022/11/21 07:38:33;;;;;;;32.37;16.23;;;3.10;99.90;;;;;;5085232;28;20196;-75
2022/11/21 07:41:00;;;;;;;39.63;16.23;;;3.00;99.90;;;;;;5081360;28;20739;-75
2022/11/21 07:43:27;;;;;;;39.23;17.43;;;3.00;99.90;;;;;;5068396;28;20228;-76
2022/11/21 07:45:55;;;;;;;33.80;15.87;;;3.00;99.90;;;;;;5066613;28;20251;-75
2022/11/21 07:48:24;;;;;;;28.10;14.93;;;2.90;99.90;;;;;;5081752;28;20619;-74
2022/11/21 07:50:51;;;;;;;31.37;14.67;;;2.90;99.90;;;;;;5079213;28;20559;-73
2022/11/21 07:53:18;;;;;;;32.00;14.90;;;2.90;99.90;;;;;;5088746;28;20227;-75
2022/11/21 07:55:45;;;;;;;29.83;14.83;;;2.90;99.90;;;;;;5062332;28;20194;-74
2022/11/21 07:58:14;;;;;;;32.37;15.30;;;2.90;99.90;;;;;;5063792;28;20286;-74
2022/11/21 08:00:42;;;;;;;29.13;14.47;;;2.90;99.90;;;;;;5062612;28;20975;-74
2022/11/21 08:03:10;;;;;;;28.87;13.10;;;2.90;99.90;;;;;;5063270;28;20255;-74
2022/11/21 08:05:40;;;;;;;24.40;12.20;;;2.80;99.90;;;;;;5082039;28;20579;-74
2022/11/21 08:08:08;;;;;;;30.13;13.53;;;2.90;99.90;;;;;;5069222;28;20216;-72
2022/11/21 08:10:38;;;;;;;27.53;13.57;;;2.90;99.90;;;;;;5079003;28;20699;-73
2022/11/21 08:13:05;;;;;;;31.97;14.27;;;2.90;99.90;;;;;;5059369;28;20553;-73
2022/11/21 08:15:32;;;;;;;26.33;12.67;;;3.00;99.90;;;;;;5080120;28;20220;-73
2022/11/21 08:18:06;;;;;;;34.50;16.03;;;3.00;99.90;;;;;;5066005;28;20783;-72
2022/11/21 08:20:33;;;;;;;37.20;16.30;;;3.10;99.90;;;;;;5075311;28;20193;-72
2022/11/21 08:23:01;;;;;;;38.77;17.47;;;3.10;99.90;;;;;;5084045;28;20184;-73
2022/11/21 08:25:28;;;;;;;32.27;15.20;;;3.00;99.90;;;;;;5066144;28;20291;-72
2022/11/21 08:27:56;;;;;;;37.90;16.80;;;3.10;99.90;;;;;;5065975;28;20310;-73
2022/11/21 08:30:24;;;;;;;35.70;16.33;;;3.10;99.90;;;;;;5058856;28;20213;-72
2022/11/21 08:32:51;;;;;;;31.97;15.17;;;3.10;99.90;;;;;;5079605;28;20563;-72
2022/11/21 08:35:18;;;;;;;36.50;16.30;;;3.00;99.90;;;;;;5082595;28;20665;-73
2022/11/21 08:37:45;;;;;;;38.13;17.90;;;3.10;99.90;;;;;;5063758;28;20212;-73
2022/11/21 08:40:13;;;;;;;34.87;16.37;;;3.00;99.90;;;;;;5068889;28;20192;-73
2022/11/21 08:42:40;;;;;;;35.07;16.27;;;3.00;99.90;;;;;;5060992;28;20635;-73
2022/11/21 08:45:08;;;;;;;35.57;16.07;;;3.00;99.90;;;;;;5083588;28;20203;-74
2022/11/21 08:47:36;;;;;;;39.57;17.87;;;3.10;99.90;;;;;;5062595;28;20219;-73
2022/11/21 08:50:03;;;;;;;34.93;16.63;;;3.10;99.90;;;;;;5084148;28;20200;-73
2022/11/21 08:52:30;;;;;;;37.10;16.07;;;3.20;99.90;;;;;;5081121;28;20196;-73
2022/11/21 08:54:57;;;;;;;46.03;19.83;;;3.20;99.90;;;;;;5079554;28;20204;-73
2022/11/21 08:57:26;;;;;;;47.87;21.03;;;3.30;99.90;;;;;;5067916;28;20589;-73
2022/11/21 08:59:53;;;;;;;56.07;25.13;;;3.30;99.90;;;;;;5067764;28;20196;-73
2022/11/21 09:02:20;;;;;;;47.30;23.10;;;3.30;99.90;;;;;;5061576;28;20240;-73
2022/11/21 09:04:47;;;;;;;53.10;23.00;;;3.20;99.90;;;;;;5078440;28;20188;-73
2022/11/21 09:07:14;;;;;;;54.17;23.03;;;3.20;99.90;;;;;;5077885;28;20226;-74
2022/11/21 09:09:41;;;;;;;53.07;23.87;;;3.10;99.90;;;;;;5078006;28;20230;-74
2022/11/21 09:12:08;;;;;;;52.07;22.70;;;3.20;99.90;;;;;;5065799;28;20200;-73
2022/11/21 09:20:06;;;;;;;46.90;21.53;;;3.20;99.90;;;;;;5079239;28;20196;-74
2022/11/21 09:22:33;;;;;;;58.57;24.53;;;3.30;99.90;;;;;;5067587;28;20196;-74
2022/11/21 09:25:00;;;;;;;57.47;24.47;;;3.30;99.90;;;;;;5085406;28;20517;-75
2022/11/21 09:27:27;;;;;;;56.10;23.80;;;3.30;99.90;;;;;;5089082;28;20283;-74
2022/11/21 09:29:55;;;;;;;57.03;25.53;;;3.30;99.90;;;;;;5084491;28;20264;-75
2022/11/21 09:32:22;;;;;;;59.70;26.30;;;3.30;99.90;;;;;;5058852;28;20193;-74
2022/11/21 09:34:49;;;;;;;66.50;28.13;;;3.40;99.90;;;;;;5075551;28;20268;-73
2022/11/21 09:37:16;;;;;;;63.00;28.00;;;3.30;99.30;;;;;;5063395;28;20542;-73
2022/11/21 09:39:43;;;;;;;63.13;28.63;;;3.30;99.30;;;;;;5060738;28;20287;-73
2022/11/21 09:42:30;;;;;;;68.73;28.50;;;3.30;98.90;;;;;;5066437;28;20196;-74
2022/11/21 09:45:13;;;;;;;63.60;27.87;;;3.20;98.80;;;;;;5064992;28;20200;-74
2022/11/21 09:47:44;;;;;;;66.27;28.73;;;3.10;98.80;;;;;;5058600;28;20239;-75
2022/11/21 09:50:25;;;;;;;62.67;27.43;;;3.00;98.90;;;;;;5077553;28;20271;-75
2022/11/21 09:52:57;;;;;;;61.10;27.90;;;3.00;99.10;;;;;;5060951;28;20192;-74
2022/11/21 09:55:31;;;;;;;65.30;28.73;;;2.90;99.00;;;;;;5079818;28;20951;-74
2022/11/21 09:58:02;;;;;;;68.23;28.83;;;2.80;98.80;;;;;;5061851;28;20286;-73
2022/11/21 10:00:31;;;;;;;60.80;27.67;;;2.80;98.70;;;;;;5065571;28;20199;-75
2022/11/21 10:02:59;;;;;;;64.60;28.50;;;2.70;98.70;;;;;;5066107;28;20228;-74
2022/11/21 10:05:35;;;;;;;60.43;27.07;;;2.70;98.70;;;;;;5076560;28;20265;-73
2022/11/21 10:08:08;;;;;;;70.10;30.63;;;2.60;98.70;;;;;;5080149;28;20206;-74
2022/11/21 10:10:50;;;;;;;63.77;28.50;;;2.60;98.60;;;;;;5075704;28;20193;-74
2022/11/21 10:13:37;;;;;;;67.17;28.37;;;2.60;98.60;;;;;;5082664;28;20219;-74
2022/11/21 10:16:14;;;;;;;59.40;27.00;;;2.60;98.70;;;;;;5066109;28;20297;-74
2022/11/21 10:19:07;;;;;;;64.97;27.80;;;2.60;98.70;;;;;;5082008;28;20544;-74
2022/11/21 10:21:54;;;;;;;76.47;31.80;;;2.70;98.90;;;;;;5079685;28;20184;-74
2022/11/21 10:24:37;;;;;;;72.53;31.93;;;2.70;98.60;;;;;;5068866;28;20286;-74
2022/11/21 10:27:11;;;;;;;69.77;29.73;;;2.60;98.40;;;;;;5091634;28;20220;-74
2022/11/21 10:29:41;;;;;;;69.23;30.23;;;2.70;98.60;;;;;;5083959;28;20299;-74
2022/11/21 10:32:19;;;;;;;65.70;28.40;;;2.70;98.60;;;;;;5076231;28;20208;-75
2022/11/21 10:34:50;;;;;;;65.70;28.50;;;2.80;99.00;;;;;;5080889;28;20207;-74
2022/11/21 10:37:30;;;;;;;65.60;27.80;;;2.80;98.70;;;;;;5066463;28;20204;-73
2022/11/21 10:40:03;;;;;;;73.63;30.57;;;2.80;98.60;;;;;;5088784;28;20271;-72
2022/11/21 10:42:36;;;;;;;76.60;32.70;;;2.90;98.40;;;;;;5058157;28;20204;-71
2022/11/21 10:47:54;;;;;;;76.43;31.87;;;2.80;98.20;;;;;;5079004;28;20278;-72
2022/11/21 10:50:33;;;;;;;68.00;30.50;;;2.80;98.20;;;;;;5083807;28;20251;-72
2022/11/21 10:56:01;;;;;;;65.93;28.57;;;2.90;98.30;;;;;;5066631;28;20271;-72
2022/11/21 10:58:36;;;;;;;68.70;28.43;;;3.00;98.20;;;;;;5066015;28;20287;-72
2022/11/21 11:01:03;;;;;;;73.67;30.90;;;3.10;98.00;;;;;;5074894;28;20664;-71
2022/11/21 11:03:32;;;;;;;61.33;27.83;;;3.00;97.80;;;;;;5086328;28;20660;-73
2022/11/21 11:05:59;;;;;;;68.73;29.33;;;3.00;97.70;;;;;;5081403;28;20193;-73
2022/11/21 11:08:27;;;;;;;61.47;28.13;;;3.00;97.90;;;;;;5081810;28;20304;-72
2022/11/21 11:11:05;;;;;;;67.77;29.13;;;3.10;98.00;;;;;;5091406;28;20274;-72
2022/11/21 11:13:54;;;;;;;63.07;26.87;;;3.10;98.00;;;;;;5064831;28;20209;-72
2022/11/21 11:16:23;;;;;;;55.10;24.27;;;3.30;98.10;;;;;;5086650;28;20294;-73
2022/11/21 11:18:57;;;;;;;67.90;28.70;;;3.40;98.00;;;;;;5081478;28;20181;-73
2022/11/21 11:21:25;;;;;;;62.30;27.67;;;3.40;97.70;;;;;;5070315;28;20435;-72
2022/11/21 11:23:54;;;;;;;63.67;27.53;;;3.40;97.70;;;;;;5085014;28;20194;-72
2022/11/21 11:26:26;;;;;;;69.47;29.40;;;3.50;97.70;;;;;;5065617;28;20197;-72
2022/11/21 11:28:54;;;;;;;63.63;29.03;;;3.50;97.30;;;;;;5081282;28;20205;-72
2022/11/21 11:31:21;;;;;;;58.83;26.90;;;3.40;97.10;;;;;;5062805;28;20207;-73
2022/11/21 11:33:56;;;;;;;66.87;30.37;;;3.40;97.10;;;;;;5079983;28;20192;-73
2022/11/21 11:36:37;;;;;;;72.63;30.97;;;3.40;97.00;;;;;;5084052;28;20278;-73
2022/11/21 11:39:14;;;;;;;69.67;29.97;;;3.30;96.80;;;;;;5076069;28;20272;-73
2022/11/21 11:47:56;;;;;;;60.30;27.83;;;3.40;97.00;;;;;;5078902;28;20609;-73
2022/11/21 11:50:29;;;;;;;72.77;31.77;;;3.40;97.10;;;;;;5084054;28;20189;-74
2022/11/21 11:53:03;;;;;;;74.13;30.93;;;3.40;96.90;;;;;;5080295;28;20271;-72
2022/11/21 11:55:36;;;;;;;60.33;28.40;;;3.40;96.90;;;;;;5081800;28;20196;-73
2022/11/21 11:58:11;;;;;;;71.97;31.17;;;3.40;96.90;;;;;;5069599;28;20287;-73
2022/11/21 12:00:45;;;;;;;78.93;34.93;;;3.40;96.70;;;;;;5084687;28;20266;-73
2022/11/21 12:03:18;;;;;;;71.17;31.93;;;3.40;96.60;;;;;;5081234;28;20230;-73
2022/11/21 12:06:05;;;;;;;81.80;34.10;;;3.40;96.60;;;;;;5063580;28;20945;-73
2022/11/21 12:08:41;;;;;;;72.00;30.03;;;3.30;96.40;;;;;;5065058;28;20471;-73
2022/11/21 12:14:12;;;;;;;71.73;30.80;;;3.20;96.50;;;;;;5064194;28;20189;-72
2022/11/21 12:16:41;;;;;;;82.07;34.67;;;3.20;96.40;;;;;;5077526;28;20200;-73
2022/11/21 12:19:14;;;;;;;77.70;33.37;;;3.10;96.20;;;;;;5071300;28;20191;-73
2022/11/21 12:21:42;;;;;;;75.23;32.40;;;3.00;96.00;;;;;;5076368;28;20215;-73
2022/11/21 12:24:11;;;;;;;78.97;32.40;;;2.90;96.10;;;;;;5083996;28;20845;-73
2022/11/21 12:26:49;;;;;;;75.30;32.33;;;2.90;96.20;;;;;;5069794;28;20203;-73
2022/11/21 12:29:33;;;;;;;66.73;29.57;;;2.80;96.20;;;;;;5070395;28;20372;-73
2022/11/21 12:32:24;;;;;;;60.10;25.87;;;2.80;96.30;;;;;;5080290;28;20597;-73
2022/11/21 12:35:15;;;;;;;73.63;30.37;;;2.90;96.40;;;;;;5084253;28;20246;-73
2022/11/21 12:37:51;;;;;;;80.13;33.33;;;2.90;96.40;;;;;;5062417;28;20316;-72
2022/11/21 12:40:37;;;;;;;77.83;32.80;;;3.00;96.30;;;;;;5080618;28;20270;-72
2022/11/21 12:43:20;;;;;;;65.30;27.87;;;3.00;96.30;;;;;;5065230;28;20525;-73
2022/11/21 12:45:50;;;;;;;54.27;24.40;;;3.10;96.40;;;;;;5063987;28;20722;-73
2022/11/21 12:54:56;;;;;;;80.30;33.50;;;3.20;96.20;;;;;;5007506;28;20205;-73
2022/11/21 12:57:35;;;;;;;81.77;33.90;;;3.20;95.90;;;;;;5084284;28;20192;-73
2022/11/21 13:00:10;;;;;;;83.67;34.43;;;3.10;95.70;;;;;;5067913;28;20208;-73
2022/11/21 13:02:53;;;;;;;71.67;30.37;;;3.00;95.70;;;;;;5081168;28;20706;-72
2022/11/21 13:05:26;;;;;;;68.30;28.50;;;3.00;95.80;;;;;;5061272;28;20572;-73
2022/11/21 13:07:59;;;;;;;83.43;33.37;;;2.90;95.90;;;;;;5082594;28;20657;-73
2022/11/21 13:10:28;;;;;;;70.10;29.27;;;3.00;96.00;;;;;;5074012;28;20555;-73
2022/11/21 13:13:02;;;;;;;78.97;31.90;;;3.00;96.00;;;;;;5065566;28;20278;-74
2022/11/21 13:15:37;;;;;;;77.37;33.77;;;3.00;96.00;;;;;;5082169;28;20215;-73
2022/11/21 13:18:16;;;;;;;61.47;23.77;;;3.00;95.90;;;;;;5077884;28;20206;-74
2022/11/21 13:20:47;;;;;;;90.83;35.43;;;3.00;96.00;;;;;;5064808;28;20196;-73
2022/11/21 13:23:36;;;;;;;79.20;33.50;;;3.00;95.90;;;;;;5077824;28;20280;-73
2022/11/21 13:26:46;;;;;;;90.80;35.67;;;3.00;95.90;;;;;;5081190;28;20271;-73